sensor_id;sensor_type;location;lat;lon;timestamp;P1;durP1;ratioP1;P2;durP2;ratioP2
70312;SDS011;57723;51.698;5.344;2023-07-22T00:02:21;7.10;;;6.40;;
70312;SDS011;57723;51.698;5.344;2023-07-22T00:04:48;7.17;;;6.47;;
70312;SDS011;57723;51.698;5.344;2023-07-22T00:07:13;7.35;;;6.65;;
70312;SDS011;57723;51.698;5.344;2023-07-22T00:09:38;6.33;;;5.73;;
70312;SDS011;57723;51.698;5.344;2023-07-22T00:12:07;7.28;;;6.60;;
70312;SDS011;57723;51.698;5.344;2023-07-22T00:14:32;6.70;;;6.10;;
70312;SDS011;57723;51.698;5.344;2023-07-22T00:16:58;7.10;;;6.40;;
70312;SDS011;57723;51.698;5.344;2023-07-22T00:19:32;7.05;;;6.35;;
70312;SDS011;57723;51.698;5.344;2023-07-22T00:21:58;7.27;;;6.57;;
70312;SDS011;57723;51.698;5.344;2023-07-22T00:24:23;7.00;;;6.30;;
70312;SDS011;57723;51.698;5.344;2023-07-22T00:26:49;7.40;;;6.70;;
70312;SDS011;57723;51.698;5.344;2023-07-22T00:29:19;7.15;;;6.55;;
70312;SDS011;57723;51.698;5.344;2023-07-22T00:31:47;6.78;;;6.07;;
70312;SDS011;57723;51.698;5.344;2023-07-22T00:34:14;7.07;;;6.47;;
70312;SDS011;57723;51.698;5.344;2023-07-22T00:36:43;5.97;;;5.37;;
70312;SDS011;57723;51.698;5.344;2023-07-22T00:39:09;7.05;;;6.40;;
70312;SDS011;57723;51.698;5.344;2023-07-22T00:41:36;6.80;;;6.20;;
70312;SDS011;57723;51.698;5.344;2023-07-22T00:44:05;7.60;;;6.90;;
70312;SDS011;57723;51.698;5.344;2023-07-22T00:46:30;7.13;;;6.43;;
70312;SDS011;57723;51.698;5.344;2023-07-22T00:48:55;7.17;;;6.57;;
70312;SDS011;57723;51.698;5.344;2023-07-22T00:51:20;6.70;;;6.10;;
70312;SDS011;57723;51.698;5.344;2023-07-22T00:53:47;6.53;;;5.93;;
70312;SDS011;57723;51.698;5.344;2023-07-22T00:56:12;7.17;;;6.47;;
70312;SDS011;57723;51.698;5.344;2023-07-22T00:58:38;7.83;;;7.07;;
70312;SDS011;57723;51.698;5.344;2023-07-22T01:01:03;6.70;;;6.10;;
70312;SDS011;57723;51.698;5.344;2023-07-22T01:03:28;6.80;;;6.20;;
70312;SDS011;57723;51.698;5.344;2023-07-22T01:05:54;7.30;;;6.60;;
70312;SDS011;57723;51.698;5.344;2023-07-22T01:08:20;7.17;;;6.47;;
70312;SDS011;57723;51.698;5.344;2023-07-22T01:10:45;7.53;;;6.82;;
70312;SDS011;57723;51.698;5.344;2023-07-22T01:13:11;7.03;;;6.43;;
70312;SDS011;57723;51.698;5.344;2023-07-22T01:15:36;7.23;;;6.53;;
70312;SDS011;57723;51.698;5.344;2023-07-22T01:18:05;7.45;;;6.75;;
70312;SDS011;57723;51.698;5.344;2023-07-22T01:20:31;7.18;;;6.47;;
70312;SDS011;57723;51.698;5.344;2023-07-22T01:22:56;7.40;;;6.67;;
70312;SDS011;57723;51.698;5.344;2023-07-22T01:25:22;6.80;;;6.00;;
70312;SDS011;57723;51.698;5.344;2023-07-22T01:27:48;6.57;;;5.97;;
70312;SDS011;57723;51.698;5.344;2023-07-22T01:30:14;6.03;;;5.43;;
70312;SDS011;57723;51.698;5.344;2023-07-22T01:32:42;5.85;;;5.30;;
70312;SDS011;57723;51.698;5.344;2023-07-22T01:35:08;6.97;;;6.28;;
70312;SDS011;57723;51.698;5.344;2023-07-22T01:37:39;7.20;;;6.50;;
70312;SDS011;57723;51.698;5.344;2023-07-22T01:40:04;6.47;;;5.88;;
70312;SDS011;57723;51.698;5.344;2023-07-22T01:42:42;6.82;;;6.22;;
70312;SDS011;57723;51.698;5.344;2023-07-22T01:45:08;7.22;;;6.53;;
70312;SDS011;57723;51.698;5.344;2023-07-22T01:47:36;6.33;;;5.73;;
70312;SDS011;57723;51.698;5.344;2023-07-22T01:50:02;6.82;;;6.22;;
70312;SDS011;57723;51.698;5.344;2023-07-22T01:52:27;7.15;;;6.32;;
70312;SDS011;57723;51.698;5.344;2023-07-22T01:54:53;6.40;;;5.80;;
70312;SDS011;57723;51.698;5.344;2023-07-22T01:57:18;6.87;;;6.17;;
70312;SDS011;57723;51.698;5.344;2023-07-22T01:59:43;7.10;;;6.40;;
70312;SDS011;57723;51.698;5.344;2023-07-22T02:02:09;6.87;;;6.17;;
70312;SDS011;57723;51.698;5.344;2023-07-22T02:04:34;7.60;;;6.80;;
70312;SDS011;57723;51.698;5.344;2023-07-22T02:07:02;6.68;;;6.00;;
70312;SDS011;57723;51.698;5.344;2023-07-22T02:09:28;7.43;;;6.70;;
70312;SDS011;57723;51.698;5.344;2023-07-22T02:11:55;6.88;;;6.18;;
70312;SDS011;57723;51.698;5.344;2023-07-22T02:14:20;7.63;;;6.83;;
70312;SDS011;57723;51.698;5.344;2023-07-22T02:16:46;7.70;;;6.47;;
70312;SDS011;57723;51.698;5.344;2023-07-22T02:19:11;7.00;;;6.30;;
70312;SDS011;57723;51.698;5.344;2023-07-22T02:21:37;6.90;;;6.20;;
70312;SDS011;57723;51.698;5.344;2023-07-22T02:24:02;6.43;;;5.80;;
70312;SDS011;57723;51.698;5.344;2023-07-22T02:26:29;7.40;;;6.40;;
70312;SDS011;57723;51.698;5.344;2023-07-22T02:28:55;6.37;;;5.77;;
70312;SDS011;57723;51.698;5.344;2023-07-22T02:31:20;6.87;;;6.17;;
70312;SDS011;57723;51.698;5.344;2023-07-22T02:33:47;7.22;;;6.45;;
70312;SDS011;57723;51.698;5.344;2023-07-22T02:36:13;6.90;;;6.18;;
70312;SDS011;57723;51.698;5.344;2023-07-22T02:38:38;7.43;;;6.70;;
70312;SDS011;57723;51.698;5.344;2023-07-22T02:41:03;6.80;;;6.07;;
70312;SDS011;57723;51.698;5.344;2023-07-22T02:43:34;6.70;;;6.07;;
70312;SDS011;57723;51.698;5.344;2023-07-22T02:46:06;6.97;;;6.13;;
70312;SDS011;57723;51.698;5.344;2023-07-22T02:48:33;6.97;;;6.05;;
70312;SDS011;57723;51.698;5.344;2023-07-22T02:51:05;6.90;;;6.30;;
70312;SDS011;57723;51.698;5.344;2023-07-22T02:53:32;6.93;;;6.10;;
70312;SDS011;57723;51.698;5.344;2023-07-22T02:56:01;6.67;;;5.97;;
70312;SDS011;57723;51.698;5.344;2023-07-22T02:58:26;6.85;;;6.25;;
70312;SDS011;57723;51.698;5.344;2023-07-22T03:00:52;7.57;;;6.60;;
70312;SDS011;57723;51.698;5.344;2023-07-22T03:03:17;7.33;;;6.57;;
70312;SDS011;57723;51.698;5.344;2023-07-22T03:05:44;6.70;;;6.10;;
70312;SDS011;57723;51.698;5.344;2023-07-22T03:08:09;7.13;;;6.43;;
70312;SDS011;57723;51.698;5.344;2023-07-22T03:10:35;6.90;;;5.90;;
70312;SDS011;57723;51.698;5.344;2023-07-22T03:13:00;6.93;;;6.33;;
70312;SDS011;57723;51.698;5.344;2023-07-22T03:15:28;6.07;;;5.47;;
70312;SDS011;57723;51.698;5.344;2023-07-22T03:17:54;7.07;;;6.38;;
70312;SDS011;57723;51.698;5.344;2023-07-22T03:20:24;6.00;;;5.40;;
70312;SDS011;57723;51.698;5.344;2023-07-22T03:22:59;6.43;;;5.82;;
70312;SDS011;57723;51.698;5.344;2023-07-22T03:25:25;6.80;;;6.07;;
70312;SDS011;57723;51.698;5.344;2023-07-22T03:27:51;6.78;;;6.00;;
70312;SDS011;57723;51.698;5.344;2023-07-22T03:30:17;7.07;;;6.38;;
70312;SDS011;57723;51.698;5.344;2023-07-22T03:32:46;7.53;;;6.10;;
70312;SDS011;57723;51.698;5.344;2023-07-22T03:35:15;7.30;;;6.60;;
70312;SDS011;57723;51.698;5.344;2023-07-22T03:37:41;6.80;;;6.10;;
70312;SDS011;57723;51.698;5.344;2023-07-22T03:40:06;6.97;;;6.27;;
70312;SDS011;57723;51.698;5.344;2023-07-22T03:42:34;7.55;;;6.75;;
70312;SDS011;57723;51.698;5.344;2023-07-22T03:44:59;7.10;;;6.40;;
70312;SDS011;57723;51.698;5.344;2023-07-22T03:47:25;7.17;;;6.47;;
70312;SDS011;57723;51.698;5.344;2023-07-22T03:49:50;6.67;;;5.97;;
70312;SDS011;57723;51.698;5.344;2023-07-22T03:52:15;6.57;;;5.93;;
70312;SDS011;57723;51.698;5.344;2023-07-22T03:54:43;6.55;;;5.88;;
70312;SDS011;57723;51.698;5.344;2023-07-22T03:57:09;6.72;;;6.03;;
70312;SDS011;57723;51.698;5.344;2023-07-22T03:59:34;7.00;;;6.40;;
70312;SDS011;57723;51.698;5.344;2023-07-22T04:02:00;7.18;;;6.47;;
70312;SDS011;57723;51.698;5.344;2023-07-22T04:04:27;6.80;;;6.20;;
70312;SDS011;57723;51.698;5.344;2023-07-22T04:06:53;7.40;;;6.70;;
70312;SDS011;57723;51.698;5.344;2023-07-22T04:09:19;7.23;;;6.13;;
70312;SDS011;57723;51.698;5.344;2023-07-22T04:11:44;7.75;;;7.00;;
70312;SDS011;57723;51.698;5.344;2023-07-22T04:14:12;7.33;;;6.47;;
70312;SDS011;57723;51.698;5.344;2023-07-22T04:16:37;7.03;;;6.32;;
70312;SDS011;57723;51.698;5.344;2023-07-22T04:19:03;7.33;;;6.63;;
70312;SDS011;57723;51.698;5.344;2023-07-22T04:21:28;7.07;;;6.37;;
70312;SDS011;57723;51.698;5.344;2023-07-22T04:23:53;7.00;;;6.30;;
70312;SDS011;57723;51.698;5.344;2023-07-22T04:26:19;7.50;;;6.65;;
70312;SDS011;57723;51.698;5.344;2023-07-22T04:28:45;6.82;;;6.10;;
70312;SDS011;57723;51.698;5.344;2023-07-22T04:31:13;8.10;;;6.50;;
70312;SDS011;57723;51.698;5.344;2023-07-22T04:33:39;6.82;;;6.13;;
70312;SDS011;57723;51.698;5.344;2023-07-22T04:36:06;7.40;;;6.70;;
70312;SDS011;57723;51.698;5.344;2023-07-22T04:38:40;7.13;;;6.43;;
70312;SDS011;57723;51.698;5.344;2023-07-22T04:41:05;6.78;;;6.18;;
70312;SDS011;57723;51.698;5.344;2023-07-22T04:43:31;6.83;;;6.13;;
70312;SDS011;57723;51.698;5.344;2023-07-22T04:45:57;6.75;;;6.15;;
70312;SDS011;57723;51.698;5.344;2023-07-22T04:48:23;7.13;;;6.43;;
70312;SDS011;57723;51.698;5.344;2023-07-22T04:50:48;6.67;;;6.07;;
70312;SDS011;57723;51.698;5.344;2023-07-22T04:53:14;6.27;;;5.67;;
70312;SDS011;57723;51.698;5.344;2023-07-22T04:55:40;7.20;;;6.50;;
70312;SDS011;57723;51.698;5.344;2023-07-22T04:58:11;8.00;;;6.80;;
70312;SDS011;57723;51.698;5.344;2023-07-22T05:00:36;7.28;;;6.57;;
70312;SDS011;57723;51.698;5.344;2023-07-22T05:03:02;7.70;;;6.53;;
70312;SDS011;57723;51.698;5.344;2023-07-22T05:05:28;6.78;;;6.07;;
70312;SDS011;57723;51.698;5.344;2023-07-22T05:07:54;7.03;;;6.20;;
70312;SDS011;57723;51.698;5.344;2023-07-22T05:10:19;7.27;;;6.57;;
70312;SDS011;57723;51.698;5.344;2023-07-22T05:12:45;7.20;;;6.50;;
70312;SDS011;57723;51.698;5.344;2023-07-22T05:15:10;7.00;;;6.20;;
70312;SDS011;57723;51.698;5.344;2023-07-22T05:17:36;7.15;;;6.45;;
70312;SDS011;57723;51.698;5.344;2023-07-22T05:20:02;7.17;;;6.47;;
70312;SDS011;57723;51.698;5.344;2023-07-22T05:22:31;7.78;;;6.85;;
70312;SDS011;57723;51.698;5.344;2023-07-22T05:24:56;8.23;;;7.30;;
70312;SDS011;57723;51.698;5.344;2023-07-22T05:27:21;6.37;;;5.73;;
70312;SDS011;57723;51.698;5.344;2023-07-22T05:29:47;7.67;;;6.97;;
70312;SDS011;57723;51.698;5.344;2023-07-22T05:32:12;7.17;;;6.47;;
70312;SDS011;57723;51.698;5.344;2023-07-22T05:34:40;7.60;;;6.80;;
70312;SDS011;57723;51.698;5.344;2023-07-22T05:37:06;7.22;;;6.07;;
70312;SDS011;57723;51.698;5.344;2023-07-22T05:39:31;7.07;;;6.37;;
70312;SDS011;57723;51.698;5.344;2023-07-22T05:41:56;6.93;;;6.23;;
70312;SDS011;57723;51.698;5.344;2023-07-22T05:44:27;7.00;;;6.30;;
70312;SDS011;57723;51.698;5.344;2023-07-22T05:46:53;6.40;;;5.80;;
70312;SDS011;57723;51.698;5.344;2023-07-22T05:49:21;7.30;;;6.60;;
70312;SDS011;57723;51.698;5.344;2023-07-22T05:51:46;7.22;;;6.53;;
70312;SDS011;57723;51.698;5.344;2023-07-22T05:54:12;7.35;;;6.65;;
70312;SDS011;57723;51.698;5.344;2023-07-22T05:56:38;7.50;;;6.70;;
70312;SDS011;57723;51.698;5.344;2023-07-22T05:59:03;7.40;;;6.70;;
70312;SDS011;57723;51.698;5.344;2023-07-22T06:01:29;6.72;;;6.03;;
70312;SDS011;57723;51.698;5.344;2023-07-22T06:03:55;6.70;;;6.00;;
70312;SDS011;57723;51.698;5.344;2023-07-22T06:06:20;7.72;;;6.80;;
70312;SDS011;57723;51.698;5.344;2023-07-22T06:08:45;6.83;;;6.07;;
70312;SDS011;57723;51.698;5.344;2023-07-22T06:11:11;7.87;;;6.97;;
70312;SDS011;57723;51.698;5.344;2023-07-22T06:13:36;8.37;;;7.20;;
70312;SDS011;57723;51.698;5.344;2023-07-22T06:16:01;8.17;;;7.23;;
70312;SDS011;57723;51.698;5.344;2023-07-22T06:18:27;9.80;;;7.10;;
70312;SDS011;57723;51.698;5.344;2023-07-22T06:20:53;7.73;;;6.87;;
70312;SDS011;57723;51.698;5.344;2023-07-22T06:23:18;8.40;;;7.53;;
70312;SDS011;57723;51.698;5.344;2023-07-22T06:25:44;8.07;;;7.28;;
70312;SDS011;57723;51.698;5.344;2023-07-22T06:28:14;8.50;;;7.10;;
70312;SDS011;57723;51.698;5.344;2023-07-22T06:30:39;8.45;;;7.45;;
70312;SDS011;57723;51.698;5.344;2023-07-22T06:33:04;9.57;;;8.07;;
70312;SDS011;57723;51.698;5.344;2023-07-22T06:35:30;11.60;;;7.63;;
70312;SDS011;57723;51.698;5.344;2023-07-22T06:37:55;9.17;;;7.73;;
70312;SDS011;57723;51.698;5.344;2023-07-22T06:40:23;8.83;;;7.53;;
70312;SDS011;57723;51.698;5.344;2023-07-22T06:42:51;10.27;;;7.68;;
70312;SDS011;57723;51.698;5.344;2023-07-22T06:45:17;8.80;;;7.60;;
70312;SDS011;57723;51.698;5.344;2023-07-22T06:47:43;9.63;;;7.53;;
70312;SDS011;57723;51.698;5.344;2023-07-22T06:50:12;11.67;;;7.90;;
70312;SDS011;57723;51.698;5.344;2023-07-22T06:52:37;9.90;;;8.00;;
70312;SDS011;57723;51.698;5.344;2023-07-22T06:55:02;8.70;;;7.77;;
70312;SDS011;57723;51.698;5.344;2023-07-22T06:57:29;13.35;;;8.52;;
70312;SDS011;57723;51.698;5.344;2023-07-22T06:59:54;9.93;;;7.50;;
70312;SDS011;57723;51.698;5.344;2023-07-22T07:02:23;8.73;;;7.83;;
70312;SDS011;57723;51.698;5.344;2023-07-22T07:04:48;8.50;;;7.60;;
70312;SDS011;57723;51.698;5.344;2023-07-22T07:07:18;10.27;;;8.00;;
70312;SDS011;57723;51.698;5.344;2023-07-22T07:09:43;9.97;;;8.17;;
70312;SDS011;57723;51.698;5.344;2023-07-22T07:12:13;11.07;;;8.45;;
70312;SDS011;57723;51.698;5.344;2023-07-22T07:14:38;8.70;;;7.17;;
70312;SDS011;57723;51.698;5.344;2023-07-22T07:17:07;8.35;;;6.75;;
70312;SDS011;57723;51.698;5.344;2023-07-22T07:19:32;12.25;;;7.88;;
70312;SDS011;57723;51.698;5.344;2023-07-22T07:21:57;10.20;;;7.00;;
70312;SDS011;57723;51.698;5.344;2023-07-22T07:24:23;9.93;;;8.20;;
70312;SDS011;57723;51.698;5.344;2023-07-22T07:26:49;9.35;;;7.43;;
70312;SDS011;57723;51.698;5.344;2023-07-22T07:29:15;10.40;;;8.03;;
70312;SDS011;57723;51.698;5.344;2023-07-22T07:31:42;11.18;;;8.70;;
70312;SDS011;57723;51.698;5.344;2023-07-22T07:34:08;8.87;;;7.03;;
70312;SDS011;57723;51.698;5.344;2023-07-22T07:36:35;9.47;;;7.87;;
70312;SDS011;57723;51.698;5.344;2023-07-22T07:39:02;8.38;;;6.95;;
70312;SDS011;57723;51.698;5.344;2023-07-22T07:41:29;9.10;;;8.13;;
70312;SDS011;57723;51.698;5.344;2023-07-22T07:43:57;8.80;;;7.10;;
70312;SDS011;57723;51.698;5.344;2023-07-22T07:46:23;9.40;;;7.07;;
70312;SDS011;57723;51.698;5.344;2023-07-22T07:48:52;9.03;;;7.20;;
70312;SDS011;57723;51.698;5.344;2023-07-22T07:51:19;9.05;;;7.35;;
70312;SDS011;57723;51.698;5.344;2023-07-22T07:53:45;11.55;;;7.57;;
70312;SDS011;57723;51.698;5.344;2023-07-22T07:56:12;13.00;;;8.55;;
70312;SDS011;57723;51.698;5.344;2023-07-22T07:58:39;9.60;;;7.90;;
70312;SDS011;57723;51.698;5.344;2023-07-22T08:01:04;11.77;;;8.23;;
70312;SDS011;57723;51.698;5.344;2023-07-22T08:03:32;17.48;;;8.32;;
70312;SDS011;57723;51.698;5.344;2023-07-22T08:06:00;11.10;;;7.50;;
70312;SDS011;57723;51.698;5.344;2023-07-22T08:08:26;11.23;;;8.27;;
70312;SDS011;57723;51.698;5.344;2023-07-22T08:11:01;11.27;;;8.07;;
70312;SDS011;57723;51.698;5.344;2023-07-22T08:13:27;12.45;;;8.45;;
70312;SDS011;57723;51.698;5.344;2023-07-22T08:15:56;9.23;;;7.17;;
70312;SDS011;57723;51.698;5.344;2023-07-22T08:18:21;11.00;;;7.72;;
70312;SDS011;57723;51.698;5.344;2023-07-22T08:20:47;12.47;;;7.43;;
70312;SDS011;57723;51.698;5.344;2023-07-22T08:23:13;10.60;;;7.80;;
70312;SDS011;57723;51.698;5.344;2023-07-22T08:25:39;12.80;;;8.17;;
70312;SDS011;57723;51.698;5.344;2023-07-22T08:28:05;10.45;;;7.55;;
70312;SDS011;57723;51.698;5.344;2023-07-22T08:30:33;11.67;;;7.63;;
70312;SDS011;57723;51.698;5.344;2023-07-22T08:33:00;10.02;;;7.32;;
70312;SDS011;57723;51.698;5.344;2023-07-22T08:35:25;9.20;;;6.80;;
70312;SDS011;57723;51.698;5.344;2023-07-22T08:37:51;10.63;;;8.00;;
70312;SDS011;57723;51.698;5.344;2023-07-22T08:40:17;10.63;;;7.20;;
70312;SDS011;57723;51.698;5.344;2023-07-22T08:42:43;10.70;;;6.93;;
70312;SDS011;57723;51.698;5.344;2023-07-22T08:45:10;10.07;;;7.25;;
70312;SDS011;57723;51.698;5.344;2023-07-22T08:47:38;9.27;;;6.97;;
70312;SDS011;57723;51.698;5.344;2023-07-22T08:50:04;8.93;;;7.53;;
70312;SDS011;57723;51.698;5.344;2023-07-22T08:52:31;10.25;;;7.07;;
70312;SDS011;57723;51.698;5.344;2023-07-22T08:54:58;8.50;;;7.00;;
70312;SDS011;57723;51.698;5.344;2023-07-22T08:57:27;8.43;;;6.68;;
70312;SDS011;57723;51.698;5.344;2023-07-22T08:59:54;10.13;;;7.32;;
70312;SDS011;57723;51.698;5.344;2023-07-22T09:02:19;7.47;;;6.73;;
70312;SDS011;57723;51.698;5.344;2023-07-22T09:04:45;8.43;;;6.65;;
70312;SDS011;57723;51.698;5.344;2023-07-22T09:07:11;9.47;;;6.50;;
70312;SDS011;57723;51.698;5.344;2023-07-22T09:09:37;9.90;;;6.97;;
70312;SDS011;57723;51.698;5.344;2023-07-22T09:12:03;8.73;;;6.53;;
70312;SDS011;57723;51.698;5.344;2023-07-22T09:14:29;11.18;;;6.85;;
70312;SDS011;57723;51.698;5.344;2023-07-22T09:16:59;8.23;;;6.50;;
70312;SDS011;57723;51.698;5.344;2023-07-22T09:19:34;7.45;;;6.65;;
70312;SDS011;57723;51.698;5.344;2023-07-22T09:22:00;9.23;;;6.67;;
70312;SDS011;57723;51.698;5.344;2023-07-22T09:24:26;9.13;;;6.55;;
70312;SDS011;57723;51.698;5.344;2023-07-22T09:26:55;8.63;;;6.80;;
70312;SDS011;57723;51.698;5.344;2023-07-22T09:29:42;7.70;;;6.90;;
70312;SDS011;57723;51.698;5.344;2023-07-22T09:32:07;8.52;;;6.18;;
70312;SDS011;57723;51.698;5.344;2023-07-22T09:34:32;8.53;;;6.87;;
70312;SDS011;57723;51.698;5.344;2023-07-22T09:36:58;9.18;;;6.15;;
70312;SDS011;57723;51.698;5.344;2023-07-22T09:39:28;7.93;;;5.70;;
70312;SDS011;57723;51.698;5.344;2023-07-22T09:41:54;7.65;;;6.35;;
70312;SDS011;57723;51.698;5.344;2023-07-22T09:44:20;7.18;;;6.00;;
70312;SDS011;57723;51.698;5.344;2023-07-22T09:46:49;8.25;;;6.60;;
70312;SDS011;57723;51.698;5.344;2023-07-22T09:49:18;7.20;;;5.70;;
70312;SDS011;57723;51.698;5.344;2023-07-22T09:51:44;8.10;;;6.03;;
70312;SDS011;57723;51.698;5.344;2023-07-22T09:54:09;10.63;;;5.78;;
70312;SDS011;57723;51.698;5.344;2023-07-22T09:56:48;10.00;;;5.90;;
70312;SDS011;57723;51.698;5.344;2023-07-22T09:59:17;8.20;;;5.97;;
70312;SDS011;57723;51.698;5.344;2023-07-22T10:01:43;7.75;;;6.05;;
70312;SDS011;57723;51.698;5.344;2023-07-22T10:04:11;8.80;;;5.90;;
70312;SDS011;57723;51.698;5.344;2023-07-22T10:06:37;7.28;;;6.50;;
70312;SDS011;57723;51.698;5.344;2023-07-22T10:09:04;6.87;;;5.93;;
70312;SDS011;57723;51.698;5.344;2023-07-22T10:11:33;8.85;;;6.43;;
70312;SDS011;57723;51.698;5.344;2023-07-22T10:13:58;7.93;;;6.40;;
70312;SDS011;57723;51.698;5.344;2023-07-22T10:16:27;7.45;;;5.60;;
70312;SDS011;57723;51.698;5.344;2023-07-22T10:18:53;7.93;;;5.70;;
70312;SDS011;57723;51.698;5.344;2023-07-22T10:21:19;6.65;;;5.72;;
70312;SDS011;57723;51.698;5.344;2023-07-22T10:23:45;7.72;;;6.18;;
70312;SDS011;57723;51.698;5.344;2023-07-22T10:26:16;7.43;;;5.32;;
70312;SDS011;57723;51.698;5.344;2023-07-22T10:28:43;6.93;;;5.83;;
70312;SDS011;57723;51.698;5.344;2023-07-22T10:31:09;6.68;;;5.60;;
70312;SDS011;57723;51.698;5.344;2023-07-22T10:33:35;7.45;;;5.93;;
70312;SDS011;57723;51.698;5.344;2023-07-22T10:36:12;7.80;;;5.30;;
70312;SDS011;57723;51.698;5.344;2023-07-22T10:38:38;6.35;;;5.53;;
70312;SDS011;57723;51.698;5.344;2023-07-22T10:41:13;8.13;;;5.57;;
70312;SDS011;57723;51.698;5.344;2023-07-22T10:43:39;6.95;;;5.68;;
70312;SDS011;57723;51.698;5.344;2023-07-22T10:46:06;7.65;;;5.97;;
70312;SDS011;57723;51.698;5.344;2023-07-22T10:48:37;7.18;;;5.80;;
70312;SDS011;57723;51.698;5.344;2023-07-22T10:51:06;8.77;;;5.90;;
70312;SDS011;57723;51.698;5.344;2023-07-22T10:53:32;7.30;;;5.95;;
70312;SDS011;57723;51.698;5.344;2023-07-22T11:06:36;6.03;;;5.43;;
70312;SDS011;57723;51.698;5.344;2023-07-22T11:09:02;6.00;;;5.40;;
70312;SDS011;57723;51.698;5.344;2023-07-22T11:11:44;6.55;;;5.45;;
70312;SDS011;57723;51.698;5.344;2023-07-22T11:14:16;7.05;;;5.47;;
70312;SDS011;57723;51.698;5.344;2023-07-22T11:16:42;6.65;;;4.97;;
70312;SDS011;57723;51.698;5.344;2023-07-22T11:19:10;5.63;;;5.13;;
70312;SDS011;57723;51.698;5.344;2023-07-22T11:21:38;5.70;;;5.13;;
70312;SDS011;57723;51.698;5.344;2023-07-22T11:24:04;5.53;;;5.03;;
70312;SDS011;57723;51.698;5.344;2023-07-22T11:26:35;5.68;;;5.03;;
70312;SDS011;57723;51.698;5.344;2023-07-22T11:29:02;7.27;;;5.07;;
70312;SDS011;57723;51.698;5.344;2023-07-22T11:31:38;6.00;;;5.05;;
70312;SDS011;57723;51.698;5.344;2023-07-22T11:34:07;5.82;;;5.22;;
70312;SDS011;57723;51.698;5.344;2023-07-22T11:36:35;6.10;;;5.60;;
70312;SDS011;57723;51.698;5.344;2023-07-22T11:39:05;6.87;;;5.47;;
70312;SDS011;57723;51.698;5.344;2023-07-22T11:41:31;6.47;;;5.03;;
70312;SDS011;57723;51.698;5.344;2023-07-22T11:43:57;8.15;;;5.00;;
70312;SDS011;57723;51.698;5.344;2023-07-22T11:46:24;6.97;;;5.15;;
70312;SDS011;57723;51.698;5.344;2023-07-22T11:48:50;6.33;;;4.87;;
70312;SDS011;57723;51.698;5.344;2023-07-22T11:51:22;5.50;;;5.00;;
70312;SDS011;57723;51.698;5.344;2023-07-22T11:53:51;5.40;;;4.88;;
70312;SDS011;57723;51.698;5.344;2023-07-22T11:56:20;5.43;;;4.80;;
70312;SDS011;57723;51.698;5.344;2023-07-22T11:58:48;6.20;;;5.32;;
70312;SDS011;57723;51.698;5.344;2023-07-22T12:01:13;5.47;;;4.78;;
70312;SDS011;57723;51.698;5.344;2023-07-22T12:03:42;5.43;;;4.93;;
70312;SDS011;57723;51.698;5.344;2023-07-22T12:06:08;5.87;;;4.73;;
70312;SDS011;57723;51.698;5.344;2023-07-22T12:08:37;6.23;;;5.20;;
70312;SDS011;57723;51.698;5.344;2023-07-22T12:11:07;5.57;;;5.07;;
70312;SDS011;57723;51.698;5.344;2023-07-22T12:13:37;5.32;;;4.40;;
70312;SDS011;57723;51.698;5.344;2023-07-22T12:16:03;5.93;;;4.78;;
70312;SDS011;57723;51.698;5.344;2023-07-22T12:18:45;5.70;;;5.20;;
70312;SDS011;57723;51.698;5.344;2023-07-22T12:21:11;5.53;;;5.03;;
70312;SDS011;57723;51.698;5.344;2023-07-22T12:23:37;5.97;;;5.45;;
70312;SDS011;57723;51.698;5.344;2023-07-22T12:26:06;6.35;;;5.07;;
70312;SDS011;57723;51.698;5.344;2023-07-22T12:28:31;5.83;;;4.60;;
70312;SDS011;57723;51.698;5.344;2023-07-22T12:30:57;5.47;;;4.95;;
70312;SDS011;57723;51.698;5.344;2023-07-22T12:33:28;6.00;;;5.43;;
70312;SDS011;57723;51.698;5.344;2023-07-22T12:35:54;5.53;;;5.03;;
70312;SDS011;57723;51.698;5.344;2023-07-22T12:38:20;5.88;;;5.18;;
70312;SDS011;57723;51.698;5.344;2023-07-22T12:40:45;5.63;;;5.07;;
70312;SDS011;57723;51.698;5.344;2023-07-22T12:43:11;7.00;;;5.17;;
70312;SDS011;57723;51.698;5.344;2023-07-22T12:45:36;6.35;;;5.60;;
70312;SDS011;57723;51.698;5.344;2023-07-22T12:48:02;5.57;;;5.07;;
70312;SDS011;57723;51.698;5.344;2023-07-22T12:50:31;5.38;;;4.88;;
70312;SDS011;57723;51.698;5.344;2023-07-22T12:52:57;6.50;;;5.60;;
70312;SDS011;57723;51.698;5.344;2023-07-22T12:55:23;4.43;;;4.03;;
70312;SDS011;57723;51.698;5.344;2023-07-22T12:57:48;6.47;;;5.07;;
70312;SDS011;57723;51.698;5.344;2023-07-22T13:00:13;6.83;;;4.93;;
70312;SDS011;57723;51.698;5.344;2023-07-22T13:02:39;5.30;;;4.60;;
70312;SDS011;57723;51.698;5.344;2023-07-22T13:05:05;5.18;;;4.68;;
70312;SDS011;57723;51.698;5.344;2023-07-22T13:07:33;5.40;;;4.85;;
70312;SDS011;57723;51.698;5.344;2023-07-22T13:09:59;6.37;;;5.20;;
70312;SDS011;57723;51.698;5.344;2023-07-22T13:12:27;5.68;;;5.18;;
70312;SDS011;57723;51.698;5.344;2023-07-22T13:14:52;5.67;;;4.27;;
70312;SDS011;57723;51.698;5.344;2023-07-22T13:17:18;6.17;;;5.37;;
70312;SDS011;57723;51.698;5.344;2023-07-22T13:19:43;6.18;;;5.18;;
70312;SDS011;57723;51.698;5.344;2023-07-22T13:22:09;6.13;;;4.53;;
70312;SDS011;57723;51.698;5.344;2023-07-22T13:24:38;5.25;;;4.85;;
70312;SDS011;57723;51.698;5.344;2023-07-22T13:27:07;5.80;;;5.30;;
70312;SDS011;57723;51.698;5.344;2023-07-22T13:29:33;5.90;;;5.40;;
70312;SDS011;57723;51.698;5.344;2023-07-22T13:31:58;5.43;;;4.93;;
70312;SDS011;57723;51.698;5.344;2023-07-22T13:34:26;5.60;;;5.10;;
70312;SDS011;57723;51.698;5.344;2023-07-22T13:36:51;5.70;;;5.20;;
70312;SDS011;57723;51.698;5.344;2023-07-22T13:39:17;5.40;;;4.90;;
70312;SDS011;57723;51.698;5.344;2023-07-22T13:41:42;5.97;;;5.00;;
70312;SDS011;57723;51.698;5.344;2023-07-22T13:44:07;5.38;;;4.90;;
70312;SDS011;57723;51.698;5.344;2023-07-22T13:46:33;5.20;;;4.70;;
70312;SDS011;57723;51.698;5.344;2023-07-22T13:48:58;5.83;;;5.33;;
70312;SDS011;57723;51.698;5.344;2023-07-22T13:51:24;5.67;;;5.13;;
70312;SDS011;57723;51.698;5.344;2023-07-22T13:53:49;5.70;;;5.20;;
70312;SDS011;57723;51.698;5.344;2023-07-22T13:56:17;7.13;;;5.10;;
70312;SDS011;57723;51.698;5.344;2023-07-22T13:58:42;5.88;;;5.30;;
70312;SDS011;57723;51.698;5.344;2023-07-22T14:01:08;5.97;;;5.37;;
70312;SDS011;57723;51.698;5.344;2023-07-22T14:03:33;5.00;;;4.50;;
70312;SDS011;57723;51.698;5.344;2023-07-22T14:05:59;7.27;;;5.10;;
70312;SDS011;57723;51.698;5.344;2023-07-22T14:08:24;4.93;;;4.53;;
70312;SDS011;57723;51.698;5.344;2023-07-22T14:10:50;4.87;;;4.43;;
70312;SDS011;57723;51.698;5.344;2023-07-22T14:13:15;6.35;;;5.38;;
70312;SDS011;57723;51.698;5.344;2023-07-22T14:15:45;5.23;;;4.73;;
70312;SDS011;57723;51.698;5.344;2023-07-22T14:18:10;7.05;;;4.93;;
70312;SDS011;57723;51.698;5.344;2023-07-22T14:20:36;5.40;;;4.50;;
70312;SDS011;57723;51.698;5.344;2023-07-22T14:23:01;6.37;;;4.73;;
70312;SDS011;57723;51.698;5.344;2023-07-22T14:25:29;7.00;;;5.07;;
70312;SDS011;57723;51.698;5.344;2023-07-22T14:27:54;5.73;;;4.97;;
70312;SDS011;57723;51.698;5.344;2023-07-22T14:30:20;6.82;;;4.80;;
70312;SDS011;57723;51.698;5.344;2023-07-22T14:32:46;5.40;;;4.80;;
70312;SDS011;57723;51.698;5.344;2023-07-22T14:35:11;5.75;;;5.25;;
70312;SDS011;57723;51.698;5.344;2023-07-22T14:37:37;7.00;;;4.40;;
70312;SDS011;57723;51.698;5.344;2023-07-22T14:40:03;5.67;;;5.00;;
70312;SDS011;57723;51.698;5.344;2023-07-22T14:42:32;6.38;;;4.88;;
70312;SDS011;57723;51.698;5.344;2023-07-22T14:44:58;6.10;;;5.50;;
70312;SDS011;57723;51.698;5.344;2023-07-22T14:47:23;7.80;;;5.23;;
70312;SDS011;57723;51.698;5.344;2023-07-22T14:49:49;6.22;;;5.57;;
70312;SDS011;57723;51.698;5.344;2023-07-22T14:52:16;6.50;;;4.85;;
70312;SDS011;57723;51.698;5.344;2023-07-22T14:54:43;6.00;;;5.40;;